createdAt,value
2022-12-11T00:04:29.088Z,19.10
2022-12-11T00:11:14.692Z,19.27
2022-12-11T00:17:57.103Z,20.10
2022-12-11T00:24:39.749Z,18.50
2022-12-11T00:31:23.347Z,19.00
2022-12-11T00:38:05.792Z,19.52
2022-12-11T00:44:50.232Z,18.38
2022-12-11T00:51:32.618Z,20.17
2022-12-11T00:58:15.270Z,18.63
2022-12-11T01:04:57.640Z,17.80
2022-12-11T01:11:42.586Z,19.52
2022-12-11T01:18:26.028Z,18.80
2022-12-11T01:25:10.483Z,19.33
2022-12-11T01:31:53.352Z,19.27
2022-12-11T01:38:36.087Z,19.30
2022-12-11T01:45:30.505Z,19.25
2022-12-11T01:52:20.186Z,17.80
2022-12-11T01:59:07.416Z,18.50
2022-12-11T02:05:50.225Z,17.50
2022-12-11T02:13:05.942Z,17.05
2022-12-11T02:20:23.953Z,17.60
2022-12-11T02:27:36.457Z,18.23
2022-12-11T02:34:20.883Z,15.52
2022-12-11T02:41:07.422Z,17.17
2022-12-11T02:47:51.676Z,16.90
2022-12-11T02:54:39.148Z,17.27
2022-12-11T03:01:21.848Z,18.90
2022-12-11T03:08:04.530Z,15.60
2022-12-11T03:14:48.823Z,15.48
2022-12-11T03:21:38.504Z,16.95
2022-12-11T03:28:31.106Z,17.52
2022-12-11T03:35:39.758Z,17.05
2022-12-11T03:42:24.280Z,17.65
2022-12-11T03:49:19.731Z,15.77
2022-12-11T03:56:05.194Z,16.38
2022-12-11T04:03:13.660Z,16.08
2022-12-11T04:09:56.654Z,16.25
2022-12-11T04:16:39.066Z,15.77
2022-12-11T04:23:39.953Z,15.07
2022-12-11T04:30:28.028Z,14.68
2022-12-11T04:37:13.197Z,13.88
2022-12-11T04:43:55.615Z,14.25
2022-12-11T04:50:37.909Z,14.30
2022-12-11T04:57:21.490Z,13.43
2022-12-11T05:04:03.882Z,12.55
2022-12-11T05:10:56.337Z,11.93
2022-12-11T05:17:38.846Z,10.70
2022-12-11T05:24:21.166Z,9.88
2022-12-11T05:31:11.412Z,10.75
2022-12-11T05:37:53.760Z,12.10
2022-12-11T05:44:36.244Z,13.27
2022-12-11T05:51:19.982Z,12.70
2022-12-11T05:58:02.342Z,12.05
2022-12-11T06:04:44.735Z,14.05
2022-12-11T06:11:30.794Z,17.38
2022-12-11T06:18:13.168Z,18.17
2022-12-11T06:24:55.716Z,17.45
2022-12-11T06:31:38.075Z,17.88
2022-12-11T06:38:20.501Z,20.58
2022-12-11T06:45:03.928Z,20.33
2022-12-11T06:51:46.302Z,20.70
2022-12-11T06:58:28.650Z,21.08
2022-12-11T07:05:11.359Z,20.85
2022-12-11T07:11:53.911Z,20.50
2022-12-11T07:18:38.209Z,20.92
2022-12-11T07:25:20.605Z,20.23
2022-12-11T07:32:03.153Z,21.33
2022-12-11T07:38:45.770Z,20.02
2022-12-11T07:45:28.196Z,20.10
2022-12-11T07:52:10.641Z,19.70
2022-12-11T07:58:53.360Z,17.48
2022-12-11T08:05:35.734Z,17.95
2022-12-11T08:12:18.069Z,18.65
2022-12-11T08:19:00.430Z,16.15
2022-12-11T08:25:42.789Z,15.73
2022-12-11T08:32:25.195Z,15.77
2022-12-11T08:39:07.622Z,16.45
2022-12-11T08:45:50.046Z,16.77
2022-12-11T08:52:34.959Z,15.48
2022-12-11T08:59:18.383Z,18.70
2022-12-11T09:06:08.453Z,17.45
2022-12-11T09:12:50.825Z,17.75
2022-12-11T09:19:33.192Z,17.67
2022-12-11T09:26:20.084Z,17.48
2022-12-11T09:33:02.675Z,19.35
2022-12-11T09:39:45.025Z,18.23
2022-12-11T09:46:33.558Z,18.25
2022-12-11T09:53:22.555Z,15.13
2022-12-11T10:00:13.940Z,17.40
2022-12-11T10:07:25.630Z,17.63
2022-12-11T10:14:24.678Z,16.15
2022-12-11T10:21:07.972Z,14.70
2022-12-11T10:27:50.895Z,15.27
2022-12-11T10:34:36.112Z,15.45
2022-12-11T10:41:21.487Z,14.65
2022-12-11T10:48:06.655Z,15.32
2022-12-11T10:55:05.809Z,14.40
2022-12-11T11:01:48.137Z,13.48
2022-12-11T11:08:40.546Z,14.98
2022-12-11T11:15:27.708Z,14.90
2022-12-11T11:22:16.301Z,15.35
2022-12-11T11:28:58.736Z,14.05
2022-12-11T11:35:56.936Z,14.70
2022-12-11T11:43:00.988Z,14.40
2022-12-11T11:50:20.634Z,14.90
2022-12-11T11:57:15.759Z,14.43
2022-12-11T12:04:00.381Z,14.55
2022-12-11T12:11:16.743Z,14.77
2022-12-11T12:18:10.323Z,15.15
2022-12-11T12:25:01.638Z,14.75
2022-12-11T12:32:10.111Z,15.30
2022-12-11T12:39:27.609Z,16.38
2022-12-11T12:46:34.155Z,18.10
2022-12-11T12:53:24.531Z,17.63
2022-12-11T13:00:13.263Z,16.60
2022-12-11T13:06:58.989Z,16.42
2022-12-11T13:13:44.610Z,17.90
2022-12-11T13:20:30.513Z,16.42
2022-12-11T13:27:25.183Z,14.27
2022-12-11T13:34:20.686Z,14.38
2022-12-11T13:41:06.076Z,15.73
2022-12-11T13:47:48.671Z,17.50
2022-12-11T13:54:36.311Z,17.20
2022-12-11T14:01:32.365Z,17.50
2022-12-11T14:08:21.685Z,24.38
2022-12-11T14:15:05.360Z,17.95
2022-12-11T14:22:01.635Z,18.10
2022-12-11T14:28:44.092Z,18.17
2022-12-11T14:35:40.570Z,20.85
2022-12-11T14:42:27.632Z,21.27
2022-12-11T14:49:41.162Z,18.00
2022-12-11T14:56:30.028Z,20.42
2022-12-11T15:03:12.319Z,18.33
2022-12-11T15:09:55.009Z,19.75
2022-12-11T15:16:40.649Z,19.98
2022-12-11T15:23:23.130Z,19.50
2022-12-11T15:30:17.952Z,20.27
2022-12-11T15:37:00.642Z,22.58
2022-12-11T15:43:44.672Z,22.10
2022-12-11T15:50:29.338Z,63.25
2022-12-11T15:57:17.083Z,21.65
2022-12-11T16:04:04.681Z,21.60
2022-12-11T16:10:48.858Z,21.75
2022-12-11T16:17:31.590Z,22.60
2022-12-11T16:24:13.985Z,22.33
2022-12-11T16:30:56.363Z,21.02
2022-12-11T16:37:38.780Z,18.63
2022-12-11T16:44:24.146Z,21.50
2022-12-11T16:51:06.481Z,19.88
2022-12-11T16:57:49.109Z,21.17
2022-12-11T17:04:31.631Z,20.52
2022-12-11T17:11:21.725Z,21.25
2022-12-11T17:18:04.213Z,22.23
2022-12-11T17:24:46.707Z,21.65
2022-12-11T17:31:29.430Z,22.73
2022-12-11T17:38:14.716Z,22.35
2022-12-11T17:44:57.119Z,23.65
2022-12-11T17:51:39.543Z,25.17
2022-12-11T17:58:22.951Z,23.13
2022-12-11T18:05:05.552Z,23.40
2022-12-11T18:11:48.200Z,24.55
2022-12-11T18:18:30.992Z,23.00
2022-12-11T18:25:13.654Z,22.27
2022-12-11T18:31:56.204Z,22.30
2022-12-11T18:38:39.623Z,23.02
2022-12-11T18:45:22.071Z,23.20
2022-12-11T18:52:04.976Z,24.90
2022-12-11T18:58:47.803Z,27.27
2022-12-11T19:05:30.455Z,28.55
2022-12-11T19:12:15.514Z,23.85
2022-12-11T19:18:58.824Z,24.27
2022-12-11T19:25:45.956Z,25.95
2022-12-11T19:32:36.053Z,25.40
2022-12-11T19:39:19.681Z,22.75
2022-12-11T19:46:06.918Z,24.35
2022-12-11T19:52:49.338Z,24.05
2022-12-11T19:59:32.360Z,24.58
2022-12-11T20:06:15.699Z,25.38
2022-12-11T20:12:59.421Z,25.02
2022-12-11T20:19:42.414Z,27.23
2022-12-11T20:26:25.658Z,26.13
2022-12-11T20:33:08.032Z,27.00
2022-12-11T20:39:50.400Z,26.73
2022-12-11T20:46:33.079Z,28.48
2022-12-11T20:53:15.603Z,28.15
2022-12-11T20:59:57.941Z,25.67
2022-12-11T21:06:42.183Z,25.40
2022-12-11T21:13:24.731Z,25.63
2022-12-11T21:20:08.014Z,23.77
2022-12-11T21:26:50.496Z,24.60
2022-12-11T21:33:33.257Z,26.02
2022-12-11T21:40:18.199Z,23.48
2022-12-11T21:47:01.077Z,25.27
2022-12-11T21:53:44.637Z,24.38
2022-12-11T22:00:28.188Z,23.98
2022-12-11T22:07:10.571Z,22.25
2022-12-11T22:13:53.065Z,21.58
2022-12-11T22:20:35.544Z,22.55
2022-12-11T22:27:23.434Z,23.40
2022-12-11T22:34:06.276Z,22.92
2022-12-11T22:40:48.729Z,22.02
2022-12-11T22:47:31.128Z,21.15
2022-12-11T22:54:13.695Z,20.33
2022-12-11T23:00:56.586Z,22.13
2022-12-11T23:07:39.418Z,22.02
2022-12-11T23:14:22.106Z,22.17
2022-12-11T23:21:05.330Z,23.27
2022-12-11T23:27:47.676Z,22.33
2022-12-11T23:34:30.106Z,20.90
2022-12-11T23:41:14.708Z,22.20
2022-12-11T23:47:57.159Z,19.98
2022-12-11T23:54:40.841Z,21.05
